sensor_id;sensor_type;location;lat;lon;timestamp;P1;durP1;ratioP1;P2;durP2;ratioP2
62610;SDS011;48683;48.084;17.272;2022-09-24T00:01:54;9.15;;;7.68;;
62610;SDS011;48683;48.084;17.272;2022-09-24T00:04:19;11.82;;;8.10;;
62610;SDS011;48683;48.084;17.272;2022-09-24T00:06:49;9.98;;;7.95;;
62610;SDS011;48683;48.084;17.272;2022-09-24T00:09:17;8.48;;;6.93;;
62610;SDS011;48683;48.084;17.272;2022-09-24T00:11:45;9.60;;;7.38;;
62610;SDS011;48683;48.084;17.272;2022-09-24T00:14:12;12.48;;;7.55;;
62610;SDS011;48683;48.084;17.272;2022-09-24T00:16:38;10.60;;;7.90;;
62610;SDS011;48683;48.084;17.272;2022-09-24T00:19:03;10.15;;;7.90;;
62610;SDS011;48683;48.084;17.272;2022-09-24T00:21:30;12.75;;;8.07;;
62610;SDS011;48683;48.084;17.272;2022-09-24T00:23:58;10.32;;;8.20;;
62610;SDS011;48683;48.084;17.272;2022-09-24T00:27:00;10.05;;;8.55;;
62610;SDS011;48683;48.084;17.272;2022-09-24T00:29:27;10.07;;;8.27;;
62610;SDS011;48683;48.084;17.272;2022-09-24T00:31:53;11.00;;;8.30;;
62610;SDS011;48683;48.084;17.272;2022-09-24T00:34:18;10.02;;;7.18;;
62610;SDS011;48683;48.084;17.272;2022-09-24T00:36:44;9.68;;;7.95;;
62610;SDS011;48683;48.084;17.272;2022-09-24T00:39:10;11.52;;;8.45;;
62610;SDS011;48683;48.084;17.272;2022-09-24T00:41:37;11.03;;;8.00;;
62610;SDS011;48683;48.084;17.272;2022-09-24T00:47:24;10.48;;;8.10;;
62610;SDS011;48683;48.084;17.272;2022-09-24T00:49:54;12.82;;;8.98;;
62610;SDS011;48683;48.084;17.272;2022-09-24T00:52:30;11.98;;;7.82;;
62610;SDS011;48683;48.084;17.272;2022-09-24T00:54:56;12.50;;;9.07;;
62610;SDS011;48683;48.084;17.272;2022-09-24T00:57:21;11.95;;;8.80;;
62610;SDS011;48683;48.084;17.272;2022-09-24T00:59:48;17.33;;;8.75;;
62610;SDS011;48683;48.084;17.272;2022-09-24T01:02:14;17.23;;;8.98;;
62610;SDS011;48683;48.084;17.272;2022-09-24T01:04:39;12.82;;;9.00;;
62610;SDS011;48683;48.084;17.272;2022-09-24T01:07:04;9.43;;;8.43;;
62610;SDS011;48683;48.084;17.272;2022-09-24T01:09:30;11.27;;;8.88;;
62610;SDS011;48683;48.084;17.272;2022-09-24T01:20:41;12.40;;;8.82;;
62610;SDS011;48683;48.084;17.272;2022-09-24T01:25:57;13.85;;;9.68;;
62610;SDS011;48683;48.084;17.272;2022-09-24T01:31:07;10.07;;;8.75;;
62610;SDS011;48683;48.084;17.272;2022-09-24T01:33:39;11.55;;;9.07;;
62610;SDS011;48683;48.084;17.272;2022-09-24T01:36:06;13.60;;;9.95;;
62610;SDS011;48683;48.084;17.272;2022-09-24T01:38:39;15.32;;;9.90;;
62610;SDS011;48683;48.084;17.272;2022-09-24T01:41:06;13.13;;;9.48;;
62610;SDS011;48683;48.084;17.272;2022-09-24T01:43:35;11.93;;;8.68;;
62610;SDS011;48683;48.084;17.272;2022-09-24T01:46:01;12.23;;;9.93;;
62610;SDS011;48683;48.084;17.272;2022-09-24T01:48:29;12.57;;;10.13;;
62610;SDS011;48683;48.084;17.272;2022-09-24T01:53:26;12.47;;;9.00;;
62610;SDS011;48683;48.084;17.272;2022-09-24T01:55:59;13.02;;;9.75;;
62610;SDS011;48683;48.084;17.272;2022-09-24T01:58:35;13.52;;;10.60;;
62610;SDS011;48683;48.084;17.272;2022-09-24T02:01:09;13.73;;;10.05;;
62610;SDS011;48683;48.084;17.272;2022-09-24T02:03:43;13.02;;;9.35;;
62610;SDS011;48683;48.084;17.272;2022-09-24T02:06:29;15.70;;;10.55;;
62610;SDS011;48683;48.084;17.272;2022-09-24T02:11:56;12.40;;;10.00;;
62610;SDS011;48683;48.084;17.272;2022-09-24T02:14:25;14.55;;;10.45;;
62610;SDS011;48683;48.084;17.272;2022-09-24T02:16:55;13.80;;;9.45;;
62610;SDS011;48683;48.084;17.272;2022-09-24T02:19:23;14.07;;;10.07;;
62610;SDS011;48683;48.084;17.272;2022-09-24T02:21:52;14.88;;;10.73;;
62610;SDS011;48683;48.084;17.272;2022-09-24T02:24:20;13.48;;;11.23;;
62610;SDS011;48683;48.084;17.272;2022-09-24T02:26:48;12.70;;;10.27;;
62610;SDS011;48683;48.084;17.272;2022-09-24T02:29:14;13.43;;;10.00;;
62610;SDS011;48683;48.084;17.272;2022-09-24T02:31:41;16.63;;;11.45;;
62610;SDS011;48683;48.084;17.272;2022-09-24T02:34:15;13.45;;;10.25;;
62610;SDS011;48683;48.084;17.272;2022-09-24T02:36:54;13.30;;;11.43;;
62610;SDS011;48683;48.084;17.272;2022-09-24T02:39:23;15.13;;;10.70;;
62610;SDS011;48683;48.084;17.272;2022-09-24T02:41:49;14.35;;;10.93;;
62610;SDS011;48683;48.084;17.272;2022-09-24T02:44:16;13.75;;;10.73;;
62610;SDS011;48683;48.084;17.272;2022-09-24T02:46:43;16.33;;;11.07;;
62610;SDS011;48683;48.084;17.272;2022-09-24T02:49:09;15.52;;;11.98;;
62610;SDS011;48683;48.084;17.272;2022-09-24T02:51:35;12.23;;;10.07;;
62610;SDS011;48683;48.084;17.272;2022-09-24T02:54:01;15.30;;;10.57;;
62610;SDS011;48683;48.084;17.272;2022-09-24T02:56:27;13.98;;;11.13;;
62610;SDS011;48683;48.084;17.272;2022-09-24T02:58:53;13.88;;;11.13;;
62610;SDS011;48683;48.084;17.272;2022-09-24T03:01:18;14.00;;;11.75;;
62610;SDS011;48683;48.084;17.272;2022-09-24T03:03:44;15.02;;;11.10;;
62610;SDS011;48683;48.084;17.272;2022-09-24T03:06:09;16.77;;;11.52;;
62610;SDS011;48683;48.084;17.272;2022-09-24T03:08:37;14.73;;;10.88;;
62610;SDS011;48683;48.084;17.272;2022-09-24T03:11:03;13.20;;;10.88;;
62610;SDS011;48683;48.084;17.272;2022-09-24T03:13:29;13.30;;;8.85;;
62610;SDS011;48683;48.084;17.272;2022-09-24T03:15:54;12.10;;;9.65;;
62610;SDS011;48683;48.084;17.272;2022-09-24T03:18:20;13.38;;;9.32;;
62610;SDS011;48683;48.084;17.272;2022-09-24T03:20:59;11.98;;;9.23;;
62610;SDS011;48683;48.084;17.272;2022-09-24T03:23:26;13.75;;;10.10;;
62610;SDS011;48683;48.084;17.272;2022-09-24T03:25:52;15.52;;;11.07;;
62610;SDS011;48683;48.084;17.272;2022-09-24T03:28:18;14.80;;;11.10;;
62610;SDS011;48683;48.084;17.272;2022-09-24T03:30:43;11.90;;;9.32;;
62610;SDS011;48683;48.084;17.272;2022-09-24T03:33:27;14.18;;;10.98;;
62610;SDS011;48683;48.084;17.272;2022-09-24T03:36:00;14.15;;;10.15;;
62610;SDS011;48683;48.084;17.272;2022-09-24T03:38:51;13.45;;;11.15;;
62610;SDS011;48683;48.084;17.272;2022-09-24T03:41:19;16.35;;;9.60;;
62610;SDS011;48683;48.084;17.272;2022-09-24T03:43:44;13.35;;;10.10;;
62610;SDS011;48683;48.084;17.272;2022-09-24T03:46:10;13.35;;;10.02;;
62610;SDS011;48683;48.084;17.272;2022-09-24T03:48:37;14.40;;;10.77;;
62610;SDS011;48683;48.084;17.272;2022-09-24T03:51:04;11.65;;;9.60;;
62610;SDS011;48683;48.084;17.272;2022-09-24T03:53:35;16.23;;;10.80;;
62610;SDS011;48683;48.084;17.272;2022-09-24T03:56:01;13.52;;;10.27;;
62610;SDS011;48683;48.084;17.272;2022-09-24T03:58:28;15.03;;;10.70;;
62610;SDS011;48683;48.084;17.272;2022-09-24T04:00:55;12.95;;;9.35;;
62610;SDS011;48683;48.084;17.272;2022-09-24T04:03:21;12.05;;;9.05;;
62610;SDS011;48683;48.084;17.272;2022-09-24T04:05:47;12.75;;;9.75;;
62610;SDS011;48683;48.084;17.272;2022-09-24T04:08:15;15.45;;;10.10;;
62610;SDS011;48683;48.084;17.272;2022-09-24T04:10:44;13.95;;;9.85;;
62610;SDS011;48683;48.084;17.272;2022-09-24T04:13:10;10.00;;;7.97;;
62610;SDS011;48683;48.084;17.272;2022-09-24T04:15:36;14.48;;;10.48;;
62610;SDS011;48683;48.084;17.272;2022-09-24T04:18:02;12.02;;;9.45;;
62610;SDS011;48683;48.084;17.272;2022-09-24T04:20:28;13.13;;;10.43;;
62610;SDS011;48683;48.084;17.272;2022-09-24T04:22:54;11.80;;;9.40;;
62610;SDS011;48683;48.084;17.272;2022-09-24T04:25:21;11.65;;;8.93;;
62610;SDS011;48683;48.084;17.272;2022-09-24T04:27:54;13.20;;;9.32;;
62610;SDS011;48683;48.084;17.272;2022-09-24T04:30:22;13.85;;;10.63;;
62610;SDS011;48683;48.084;17.272;2022-09-24T04:32:48;12.63;;;9.70;;
62610;SDS011;48683;48.084;17.272;2022-09-24T04:35:15;13.48;;;9.85;;
62610;SDS011;48683;48.084;17.272;2022-09-24T04:37:41;9.85;;;8.57;;
62610;SDS011;48683;48.084;17.272;2022-09-24T04:40:07;12.73;;;9.50;;
62610;SDS011;48683;48.084;17.272;2022-09-24T04:42:34;12.07;;;8.57;;
62610;SDS011;48683;48.084;17.272;2022-09-24T04:44:59;16.48;;;10.38;;
62610;SDS011;48683;48.084;17.272;2022-09-24T04:47:25;11.13;;;8.93;;
62610;SDS011;48683;48.084;17.272;2022-09-24T04:49:50;13.25;;;9.95;;
62610;SDS011;48683;48.084;17.272;2022-09-24T04:52:16;11.10;;;9.48;;
62610;SDS011;48683;48.084;17.272;2022-09-24T04:54:42;16.95;;;11.10;;
62610;SDS011;48683;48.084;17.272;2022-09-24T04:59:34;11.93;;;8.80;;
62610;SDS011;48683;48.084;17.272;2022-09-24T05:01:59;14.02;;;9.98;;
62610;SDS011;48683;48.084;17.272;2022-09-24T05:04:25;14.18;;;9.60;;
62610;SDS011;48683;48.084;17.272;2022-09-24T05:06:50;13.40;;;10.35;;
62610;SDS011;48683;48.084;17.272;2022-09-24T05:09:15;15.00;;;11.05;;
62610;SDS011;48683;48.084;17.272;2022-09-24T05:11:41;16.75;;;10.43;;
62610;SDS011;48683;48.084;17.272;2022-09-24T05:14:06;14.20;;;10.05;;
62610;SDS011;48683;48.084;17.272;2022-09-24T05:16:32;14.00;;;9.40;;
62610;SDS011;48683;48.084;17.272;2022-09-24T05:18:57;12.02;;;9.18;;
62610;SDS011;48683;48.084;17.272;2022-09-24T05:21:23;16.77;;;10.80;;
62610;SDS011;48683;48.084;17.272;2022-09-24T05:23:48;14.63;;;10.48;;
62610;SDS011;48683;48.084;17.272;2022-09-24T05:26:13;13.82;;;11.00;;
62610;SDS011;48683;48.084;17.272;2022-09-24T05:28:57;14.07;;;10.93;;
62610;SDS011;48683;48.084;17.272;2022-09-24T05:31:23;9.90;;;8.75;;
62610;SDS011;48683;48.084;17.272;2022-09-24T05:33:48;14.25;;;10.82;;
62610;SDS011;48683;48.084;17.272;2022-09-24T05:36:15;15.38;;;11.02;;
62610;SDS011;48683;48.084;17.272;2022-09-24T05:38:40;14.63;;;10.38;;
62610;SDS011;48683;48.084;17.272;2022-09-24T05:41:05;17.55;;;10.43;;
62610;SDS011;48683;48.084;17.272;2022-09-24T05:43:31;12.32;;;9.82;;
62610;SDS011;48683;48.084;17.272;2022-09-24T05:45:56;13.23;;;9.95;;
62610;SDS011;48683;48.084;17.272;2022-09-24T05:48:23;14.27;;;10.73;;
62610;SDS011;48683;48.084;17.272;2022-09-24T05:53:19;15.93;;;10.43;;
62610;SDS011;48683;48.084;17.272;2022-09-24T05:55:47;20.65;;;10.15;;
62610;SDS011;48683;48.084;17.272;2022-09-24T05:58:12;15.05;;;10.20;;
62610;SDS011;48683;48.084;17.272;2022-09-24T06:00:38;12.57;;;9.77;;
62610;SDS011;48683;48.084;17.272;2022-09-24T06:03:10;14.38;;;9.48;;
62610;SDS011;48683;48.084;17.272;2022-09-24T06:05:37;15.85;;;10.63;;
62610;SDS011;48683;48.084;17.272;2022-09-24T06:08:03;14.07;;;9.88;;
62610;SDS011;48683;48.084;17.272;2022-09-24T06:10:30;15.00;;;10.80;;
62610;SDS011;48683;48.084;17.272;2022-09-24T06:12:56;13.95;;;10.30;;
62610;SDS011;48683;48.084;17.272;2022-09-24T06:15:23;12.50;;;10.18;;
62610;SDS011;48683;48.084;17.272;2022-09-24T06:17:51;13.85;;;10.32;;
62610;SDS011;48683;48.084;17.272;2022-09-24T06:20:18;11.77;;;9.55;;
62610;SDS011;48683;48.084;17.272;2022-09-24T06:22:44;11.88;;;10.13;;
62610;SDS011;48683;48.084;17.272;2022-09-24T06:25:09;14.32;;;9.88;;
62610;SDS011;48683;48.084;17.272;2022-09-24T06:27:34;14.35;;;10.68;;
62610;SDS011;48683;48.084;17.272;2022-09-24T06:30:00;11.73;;;9.07;;
62610;SDS011;48683;48.084;17.272;2022-09-24T06:32:25;12.27;;;9.35;;
62610;SDS011;48683;48.084;17.272;2022-09-24T06:34:50;10.82;;;9.32;;
62610;SDS011;48683;48.084;17.272;2022-09-24T06:37:16;14.00;;;10.20;;
62610;SDS011;48683;48.084;17.272;2022-09-24T06:39:41;11.65;;;9.65;;
62610;SDS011;48683;48.084;17.272;2022-09-24T06:42:07;13.23;;;9.63;;
62610;SDS011;48683;48.084;17.272;2022-09-24T06:44:33;13.50;;;9.63;;
62610;SDS011;48683;48.084;17.272;2022-09-24T06:46:59;13.65;;;10.38;;
62610;SDS011;48683;48.084;17.272;2022-09-24T06:49:25;11.33;;;9.20;;
62610;SDS011;48683;48.084;17.272;2022-09-24T06:51:54;14.38;;;8.98;;
62610;SDS011;48683;48.084;17.272;2022-09-24T06:54:20;11.00;;;8.48;;
62610;SDS011;48683;48.084;17.272;2022-09-24T06:56:46;11.43;;;8.93;;
62610;SDS011;48683;48.084;17.272;2022-09-24T06:59:12;9.70;;;8.65;;
62610;SDS011;48683;48.084;17.272;2022-09-24T07:01:37;12.07;;;9.38;;
62610;SDS011;48683;48.084;17.272;2022-09-24T07:04:02;11.20;;;9.15;;
62610;SDS011;48683;48.084;17.272;2022-09-24T07:06:28;10.68;;;8.52;;
62610;SDS011;48683;48.084;17.272;2022-09-24T07:09:13;9.43;;;7.78;;
62610;SDS011;48683;48.084;17.272;2022-09-24T07:11:39;11.48;;;9.02;;
62610;SDS011;48683;48.084;17.272;2022-09-24T07:14:05;9.45;;;8.30;;
62610;SDS011;48683;48.084;17.272;2022-09-24T07:16:30;10.32;;;8.27;;
62610;SDS011;48683;48.084;17.272;2022-09-24T07:18:55;12.02;;;8.32;;
62610;SDS011;48683;48.084;17.272;2022-09-24T07:21:21;9.82;;;8.15;;
62610;SDS011;48683;48.084;17.272;2022-09-24T07:23:46;9.70;;;7.30;;
62610;SDS011;48683;48.084;17.272;2022-09-24T07:26:12;11.10;;;8.70;;
62610;SDS011;48683;48.084;17.272;2022-09-24T07:28:37;12.48;;;8.70;;
62610;SDS011;48683;48.084;17.272;2022-09-24T07:31:03;9.80;;;8.18;;
62610;SDS011;48683;48.084;17.272;2022-09-24T07:33:29;9.27;;;7.20;;
62610;SDS011;48683;48.084;17.272;2022-09-24T07:35:55;14.00;;;8.77;;
62610;SDS011;48683;48.084;17.272;2022-09-24T07:38:20;18.15;;;16.25;;
62610;SDS011;48683;48.084;17.272;2022-09-24T07:40:46;13.27;;;8.30;;
62610;SDS011;48683;48.084;17.272;2022-09-24T07:43:11;10.80;;;6.57;;
62610;SDS011;48683;48.084;17.272;2022-09-24T07:45:38;11.07;;;6.93;;
62610;SDS011;48683;48.084;17.272;2022-09-24T07:48:05;6.78;;;6.07;;
62610;SDS011;48683;48.084;17.272;2022-09-24T07:50:32;8.40;;;7.28;;
62610;SDS011;48683;48.084;17.272;2022-09-24T07:52:59;8.70;;;6.45;;
62610;SDS011;48683;48.084;17.272;2022-09-24T07:55:25;8.85;;;6.38;;
62610;SDS011;48683;48.084;17.272;2022-09-24T07:57:52;7.73;;;6.43;;
62610;SDS011;48683;48.084;17.272;2022-09-24T08:00:19;9.00;;;6.35;;
62610;SDS011;48683;48.084;17.272;2022-09-24T08:05:12;7.53;;;6.00;;
62610;SDS011;48683;48.084;17.272;2022-09-24T08:07:39;9.88;;;6.28;;
62610;SDS011;48683;48.084;17.272;2022-09-24T08:10:05;8.70;;;6.80;;
62610;SDS011;48683;48.084;17.272;2022-09-24T08:12:32;7.40;;;6.70;;
62610;SDS011;48683;48.084;17.272;2022-09-24T08:14:57;11.20;;;5.82;;
62610;SDS011;48683;48.084;17.272;2022-09-24T08:17:23;8.93;;;6.38;;
62610;SDS011;48683;48.084;17.272;2022-09-24T08:19:49;7.22;;;6.20;;
62610;SDS011;48683;48.084;17.272;2022-09-24T08:24:41;11.97;;;6.60;;
62610;SDS011;48683;48.084;17.272;2022-09-24T08:27:07;7.95;;;5.80;;
62610;SDS011;48683;48.084;17.272;2022-09-24T08:29:32;9.25;;;7.25;;
62610;SDS011;48683;48.084;17.272;2022-09-24T08:31:58;8.40;;;5.45;;
62610;SDS011;48683;48.084;17.272;2022-09-24T08:34:24;7.80;;;6.13;;
62610;SDS011;48683;48.084;17.272;2022-09-24T08:36:49;6.97;;;5.30;;
62610;SDS011;48683;48.084;17.272;2022-09-24T08:39:15;7.43;;;5.28;;
62610;SDS011;48683;48.084;17.272;2022-09-24T08:47:12;6.65;;;4.88;;
62610;SDS011;48683;48.084;17.272;2022-09-24T08:49:54;5.28;;;4.78;;
62610;SDS011;48683;48.084;17.272;2022-09-24T08:52:28;7.50;;;4.70;;
62610;SDS011;48683;48.084;17.272;2022-09-24T08:54:59;5.25;;;4.47;;
62610;SDS011;48683;48.084;17.272;2022-09-24T08:57:32;4.80;;;4.28;;
62610;SDS011;48683;48.084;17.272;2022-09-24T09:00:04;5.47;;;4.43;;
62610;SDS011;48683;48.084;17.272;2022-09-24T09:02:40;8.13;;;4.88;;
62610;SDS011;48683;48.084;17.272;2022-09-24T09:05:17;5.28;;;4.35;;
62610;SDS011;48683;48.084;17.272;2022-09-24T09:08:07;6.28;;;4.68;;
62610;SDS011;48683;48.084;17.272;2022-09-24T09:10:57;6.70;;;4.00;;
62610;SDS011;48683;48.084;17.272;2022-09-24T09:13:28;6.32;;;4.25;;
62610;SDS011;48683;48.084;17.272;2022-09-24T09:16:04;5.93;;;4.13;;
62610;SDS011;48683;48.084;17.272;2022-09-24T09:19:07;5.88;;;3.97;;
62610;SDS011;48683;48.084;17.272;2022-09-24T09:21:51;5.13;;;3.72;;
62610;SDS011;48683;48.084;17.272;2022-09-24T09:24:25;5.30;;;3.53;;
62610;SDS011;48683;48.084;17.272;2022-09-24T09:26:59;6.97;;;3.92;;
62610;SDS011;48683;48.084;17.272;2022-09-24T09:29:25;4.78;;;3.90;;
62610;SDS011;48683;48.084;17.272;2022-09-24T09:32:07;4.03;;;3.50;;
62610;SDS011;48683;48.084;17.272;2022-09-24T09:34:50;5.65;;;4.13;;
62610;SDS011;48683;48.084;17.272;2022-09-24T09:37:26;6.13;;;4.05;;
62610;SDS011;48683;48.084;17.272;2022-09-24T09:42:30;5.13;;;3.55;;
62610;SDS011;48683;48.084;17.272;2022-09-24T09:45:01;4.13;;;3.72;;
62610;SDS011;48683;48.084;17.272;2022-09-24T09:47:46;5.57;;;3.78;;
62610;SDS011;48683;48.084;17.272;2022-09-24T09:52:53;4.05;;;3.20;;
62610;SDS011;48683;48.084;17.272;2022-09-24T09:55:24;10.97;;;4.07;;
62610;SDS011;48683;48.084;17.272;2022-09-24T09:57:52;4.97;;;4.10;;
62610;SDS011;48683;48.084;17.272;2022-09-24T10:00:24;4.53;;;4.13;;
62610;SDS011;48683;48.084;17.272;2022-09-24T10:02:58;5.33;;;3.57;;
62610;SDS011;48683;48.084;17.272;2022-09-24T10:05:24;5.05;;;3.55;;
62610;SDS011;48683;48.084;17.272;2022-09-24T10:07:53;4.85;;;4.35;;
62610;SDS011;48683;48.084;17.272;2022-09-24T10:10:22;5.90;;;3.78;;
62610;SDS011;48683;48.084;17.272;2022-09-24T10:12:53;5.32;;;4.28;;
62610;SDS011;48683;48.084;17.272;2022-09-24T10:15:32;6.68;;;4.15;;
62610;SDS011;48683;48.084;17.272;2022-09-24T10:17:57;4.03;;;3.63;;
62610;SDS011;48683;48.084;17.272;2022-09-24T10:20:25;8.23;;;4.35;;
62610;SDS011;48683;48.084;17.272;2022-09-24T10:22:57;5.15;;;4.00;;
62610;SDS011;48683;48.084;17.272;2022-09-24T10:25:27;4.70;;;4.28;;
62610;SDS011;48683;48.084;17.272;2022-09-24T10:27:54;6.22;;;4.68;;
62610;SDS011;48683;48.084;17.272;2022-09-24T10:30:53;5.60;;;3.67;;
62610;SDS011;48683;48.084;17.272;2022-09-24T10:33:25;5.47;;;3.65;;
62610;SDS011;48683;48.084;17.272;2022-09-24T10:36:02;5.97;;;3.83;;
62610;SDS011;48683;48.084;17.272;2022-09-24T10:38:32;5.65;;;4.03;;
62610;SDS011;48683;48.084;17.272;2022-09-24T10:40:58;7.07;;;4.00;;
62610;SDS011;48683;48.084;17.272;2022-09-24T10:43:25;4.18;;;3.30;;
62610;SDS011;48683;48.084;17.272;2022-09-24T10:51:16;5.88;;;4.38;;
62610;SDS011;48683;48.084;17.272;2022-09-24T10:56:37;7.03;;;3.42;;
62610;SDS011;48683;48.084;17.272;2022-09-24T11:04:09;5.20;;;3.50;;
62610;SDS011;48683;48.084;17.272;2022-09-24T11:20:25;4.15;;;2.95;;
62610;SDS011;48683;48.084;17.272;2022-09-24T11:23:03;3.90;;;3.17;;
62610;SDS011;48683;48.084;17.272;2022-09-24T11:25:45;4.65;;;2.75;;
62610;SDS011;48683;48.084;17.272;2022-09-24T11:28:37;3.78;;;3.33;;
62610;SDS011;48683;48.084;17.272;2022-09-24T11:47:56;3.83;;;2.83;;
62610;SDS011;48683;48.084;17.272;2022-09-24T11:55:57;2.75;;;2.45;;
62610;SDS011;48683;48.084;17.272;2022-09-24T11:58:27;2.72;;;2.33;;
62610;SDS011;48683;48.084;17.272;2022-09-24T12:01:01;4.25;;;2.47;;
62610;SDS011;48683;48.084;17.272;2022-09-24T12:06:23;2.88;;;2.58;;
62610;SDS011;48683;48.084;17.272;2022-09-24T12:08:59;3.33;;;2.40;;
62610;SDS011;48683;48.084;17.272;2022-09-24T12:16:41;2.67;;;2.40;;
62610;SDS011;48683;48.084;17.272;2022-09-24T12:19:17;4.35;;;2.72;;
62610;SDS011;48683;48.084;17.272;2022-09-24T12:21:46;3.05;;;2.25;;
62610;SDS011;48683;48.084;17.272;2022-09-24T12:27:09;4.22;;;2.83;;
62610;SDS011;48683;48.084;17.272;2022-09-24T12:32:45;3.40;;;2.60;;
62610;SDS011;48683;48.084;17.272;2022-09-24T12:37:56;6.77;;;2.80;;
62610;SDS011;48683;48.084;17.272;2022-09-24T12:43:20;3.47;;;2.30;;
62610;SDS011;48683;48.084;17.272;2022-09-24T12:45:58;5.60;;;2.80;;
62610;SDS011;48683;48.084;17.272;2022-09-24T12:48:26;2.78;;;2.58;;
62610;SDS011;48683;48.084;17.272;2022-09-24T12:50:57;5.13;;;2.97;;
62610;SDS011;48683;48.084;17.272;2022-09-24T12:53:30;3.25;;;2.50;;
62610;SDS011;48683;48.084;17.272;2022-09-24T12:55:58;5.03;;;2.80;;
62610;SDS011;48683;48.084;17.272;2022-09-24T12:58:29;5.70;;;2.92;;
62610;SDS011;48683;48.084;17.272;2022-09-24T13:01:07;6.80;;;3.00;;
62610;SDS011;48683;48.084;17.272;2022-09-24T13:03:37;3.40;;;2.60;;
62610;SDS011;48683;48.084;17.272;2022-09-24T13:06:21;5.78;;;2.85;;
62610;SDS011;48683;48.084;17.272;2022-09-24T13:08:47;2.95;;;2.58;;
62610;SDS011;48683;48.084;17.272;2022-09-24T13:16:41;2.30;;;2.10;;
62610;SDS011;48683;48.084;17.272;2022-09-24T13:19:21;3.50;;;2.17;;
62610;SDS011;48683;48.084;17.272;2022-09-24T13:21:56;3.78;;;2.55;;
62610;SDS011;48683;48.084;17.272;2022-09-24T13:24:32;3.08;;;2.40;;
62610;SDS011;48683;48.084;17.272;2022-09-24T13:32:45;3.85;;;2.58;;
62610;SDS011;48683;48.084;17.272;2022-09-24T13:35:17;3.75;;;2.67;;
62610;SDS011;48683;48.084;17.272;2022-09-24T13:37:48;3.33;;;2.30;;
62610;SDS011;48683;48.084;17.272;2022-09-24T13:40:18;3.22;;;2.20;;
62610;SDS011;48683;48.084;17.272;2022-09-24T13:42:54;4.60;;;2.58;;
62610;SDS011;48683;48.084;17.272;2022-09-24T13:45:26;6.07;;;2.70;;
62610;SDS011;48683;48.084;17.272;2022-09-24T13:47:53;2.53;;;2.33;;
62610;SDS011;48683;48.084;17.272;2022-09-24T13:50:22;3.05;;;2.63;;
62610;SDS011;48683;48.084;17.272;2022-09-24T13:53:00;4.88;;;2.95;;
62610;SDS011;48683;48.084;17.272;2022-09-24T13:58:02;3.13;;;2.30;;
62610;SDS011;48683;48.084;17.272;2022-09-24T14:00:27;2.67;;;2.40;;
62610;SDS011;48683;48.084;17.272;2022-09-24T14:05:29;5.72;;;2.50;;
62610;SDS011;48683;48.084;17.272;2022-09-24T14:10:28;3.13;;;2.60;;
62610;SDS011;48683;48.084;17.272;2022-09-24T14:13:37;3.60;;;2.63;;
62610;SDS011;48683;48.084;17.272;2022-09-24T14:15:50;6.88;;;2.50;;
62610;SDS011;48683;48.084;17.272;2022-09-24T14:18:16;7.88;;;2.78;;
62610;SDS011;48683;48.084;17.272;2022-09-24T14:20:41;5.03;;;2.57;;
62610;SDS011;48683;48.084;17.272;2022-09-24T14:23:08;6.63;;;2.97;;
62610;SDS011;48683;48.084;17.272;2022-09-24T14:25:42;6.95;;;2.40;;
62610;SDS011;48683;48.084;17.272;2022-09-24T14:28:09;6.00;;;2.47;;
62610;SDS011;48683;48.084;17.272;2022-09-24T14:30:37;9.13;;;2.85;;
62610;SDS011;48683;48.084;17.272;2022-09-24T14:33:16;38.00;;;4.25;;
62610;SDS011;48683;48.084;17.272;2022-09-24T14:35:46;6.10;;;2.60;;
62610;SDS011;48683;48.084;17.272;2022-09-24T14:38:18;3.92;;;2.30;;
62610;SDS011;48683;48.084;17.272;2022-09-24T14:40:49;2.80;;;2.40;;
62610;SDS011;48683;48.084;17.272;2022-09-24T14:45:58;6.35;;;2.58;;
62610;SDS011;48683;48.084;17.272;2022-09-24T14:48:32;3.10;;;2.20;;
62610;SDS011;48683;48.084;17.272;2022-09-24T14:50:58;3.80;;;2.80;;
62610;SDS011;48683;48.084;17.272;2022-09-24T14:53:25;5.73;;;2.33;;
62610;SDS011;48683;48.084;17.272;2022-09-24T14:55:53;4.13;;;2.50;;
62610;SDS011;48683;48.084;17.272;2022-09-24T14:58:23;4.93;;;2.67;;
62610;SDS011;48683;48.084;17.272;2022-09-24T15:01:15;2.78;;;2.35;;
62610;SDS011;48683;48.084;17.272;2022-09-24T15:03:50;3.63;;;2.40;;
62610;SDS011;48683;48.084;17.272;2022-09-24T15:09:04;3.58;;;2.40;;
62610;SDS011;48683;48.084;17.272;2022-09-24T15:11:39;4.65;;;2.42;;
62610;SDS011;48683;48.084;17.272;2022-09-24T15:14:17;4.38;;;2.67;;
62610;SDS011;48683;48.084;17.272;2022-09-24T15:16:49;5.18;;;2.60;;
62610;SDS011;48683;48.084;17.272;2022-09-24T15:19:19;3.00;;;2.70;;
62610;SDS011;48683;48.084;17.272;2022-09-24T15:21:47;4.60;;;2.88;;
62610;SDS011;48683;48.084;17.272;2022-09-24T15:24:14;6.97;;;3.30;;
62610;SDS011;48683;48.084;17.272;2022-09-24T15:26:42;3.60;;;2.58;;
62610;SDS011;48683;48.084;17.272;2022-09-24T15:29:19;4.93;;;3.10;;
62610;SDS011;48683;48.084;17.272;2022-09-24T15:31:48;3.30;;;2.80;;
62610;SDS011;48683;48.084;17.272;2022-09-24T15:34:17;3.10;;;2.80;;
62610;SDS011;48683;48.084;17.272;2022-09-24T15:36:43;3.83;;;3.25;;
62610;SDS011;48683;48.084;17.272;2022-09-24T15:39:10;8.98;;;3.70;;
62610;SDS011;48683;48.084;17.272;2022-09-24T15:41:43;6.05;;;3.60;;
62610;SDS011;48683;48.084;17.272;2022-09-24T15:44:10;4.67;;;3.27;;
62610;SDS011;48683;48.084;17.272;2022-09-24T15:46:43;6.22;;;4.10;;
62610;SDS011;48683;48.084;17.272;2022-09-24T15:49:09;3.87;;;3.47;;
62610;SDS011;48683;48.084;17.272;2022-09-24T15:51:35;4.03;;;3.60;;
62610;SDS011;48683;48.084;17.272;2022-09-24T15:54:03;8.02;;;3.60;;
62610;SDS011;48683;48.084;17.272;2022-09-24T15:56:28;6.43;;;3.83;;
62610;SDS011;48683;48.084;17.272;2022-09-24T15:58:53;7.90;;;3.07;;
62610;SDS011;48683;48.084;17.272;2022-09-24T16:01:19;6.07;;;3.43;;
62610;SDS011;48683;48.084;17.272;2022-09-24T16:03:45;6.37;;;3.27;;
62610;SDS011;48683;48.084;17.272;2022-09-24T16:06:10;5.73;;;3.43;;
62610;SDS011;48683;48.084;17.272;2022-09-24T16:08:36;7.73;;;3.80;;
62610;SDS011;48683;48.084;17.272;2022-09-24T16:11:02;8.77;;;3.87;;
62610;SDS011;48683;48.084;17.272;2022-09-24T16:13:29;4.80;;;3.85;;
62610;SDS011;48683;48.084;17.272;2022-09-24T16:15:55;4.23;;;3.57;;
62610;SDS011;48683;48.084;17.272;2022-09-24T16:18:20;5.07;;;3.70;;
62610;SDS011;48683;48.084;17.272;2022-09-24T16:20:49;6.43;;;3.85;;
62610;SDS011;48683;48.084;17.272;2022-09-24T16:23:15;5.00;;;4.50;;
62610;SDS011;48683;48.084;17.272;2022-09-24T16:25:51;10.13;;;5.50;;
62610;SDS011;48683;48.084;17.272;2022-09-24T16:28:18;9.55;;;6.35;;
62610;SDS011;48683;48.084;17.272;2022-09-24T16:30:43;14.53;;;9.30;;
62610;SDS011;48683;48.084;17.272;2022-09-24T16:33:09;12.87;;;9.27;;
62610;SDS011;48683;48.084;17.272;2022-09-24T16:35:34;9.37;;;6.80;;
62610;SDS011;48683;48.084;17.272;2022-09-24T16:38:00;11.80;;;7.80;;
62610;SDS011;48683;48.084;17.272;2022-09-24T16:40:25;9.20;;;7.73;;
62610;SDS011;48683;48.084;17.272;2022-09-24T16:42:51;17.53;;;11.27;;
62610;SDS011;48683;48.084;17.272;2022-09-24T16:45:16;10.10;;;7.83;;
62610;SDS011;48683;48.084;17.272;2022-09-24T16:47:42;11.70;;;7.40;;
62610;SDS011;48683;48.084;17.272;2022-09-24T16:50:07;10.55;;;5.85;;
62610;SDS011;48683;48.084;17.272;2022-09-24T16:52:33;8.57;;;5.70;;
62610;SDS011;48683;48.084;17.272;2022-09-24T16:54:58;10.50;;;3.70;;